Time;durP1;ratioP1;P1;durP2;ratioP2;P2;SDS_P1;SDS_P2;PMS_P1;PMS_P2;Temp;Humidity;BMP_temperature;BMP_pressure;BME280_temperature;BME280_humidity;BME280_pressure;Samples;Min_cycle;Max_cycle;Signal;HPM_P1;HPM_P2
2022/10/09 00:00:22;;;;;;;5.5;2.8;;;;;;;12.4;94.30176;944.8003;;;;
2022/10/09 00:02:49;;;;;;;3.5;2.3;;;;;;;12.35;94.7627;944.8245;;;;
2022/10/09 00:05:14;;;;;;;5.6;2.7;;;;;;;12.28;95.05762;944.7836;;;;
2022/10/09 00:07:42;;;;;;;4.3;2.9;;;;;;;12.22;94.92773;944.8108;;;;
2022/10/09 00:10:15;;;;;;;6.1;2.8;;;;;;;12.33;94.84082;944.8075;;;;
2022/10/09 00:12:43;;;;;;;4;2.3;;;;;;;12.37;93.98633;944.7433;;;;
2022/10/09 00:15:09;;;;;;;6.1;2.6;;;;;;;12.43;94.22754;944.7722;;;;
2022/10/09 00:17:33;;;;;;;6.7;2.2;;;;;;;12.43;93.69043;944.7714;;;;
2022/10/09 00:20:00;;;;;;;4.8;2.4;;;;;;;12.44;93.7041;944.73;;;;
2022/10/09 00:22:25;;;;;;;5.6;2.8;;;;;;;12.48;93.76953;944.7217;;;;
2022/10/09 00:24:52;;;;;;;5.6;2.5;;;;;;;12.52;92.82715;944.7422;;;;
2022/10/09 00:27:17;;;;;;;5.4;2.6;;;;;;;12.54;92.24609;944.72;;;;
2022/10/09 00:29:42;;;;;;;4.2;2.4;;;;;;;12.52;92.86133;944.6951;;;;
2022/10/09 00:32:07;;;;;;;4;2.3;;;;;;;12.53;92.05859;944.6688;;;;
2022/10/09 00:34:34;;;;;;;5.9;3;;;;;;;12.53;91.79688;944.6122;;;;
2022/10/09 00:36:59;;;;;;;2.8;2.1;;;;;;;12.54;91.53613;944.5308;;;;
2022/10/09 00:39:26;;;;;;;5.5;2.6;;;;;;;12.5;91.96289;944.5016;;;;
2022/10/09 00:41:51;;;;;;;5.5;2.7;;;;;;;12.29;93.13184;944.4531;;;;
2022/10/09 00:44:19;;;;;;;5.1;2.3;;;;;;;12.18;94.14063;944.4601;;;;
2022/10/09 00:46:45;;;;;;;4.2;2.4;;;;;;;12.31;93.67676;944.4199;;;;
2022/10/09 00:49:09;;;;;;;4.2;2.9;;;;;;;12.3;93.7207;944.3655;;;;
2022/10/09 00:51:37;;;;;;;5.2;2.7;;;;;;;12.36;93.25098;944.402;;;;
2022/10/09 00:54:02;;;;;;;3.7;2.7;;;;;;;12.39;92.95996;944.3505;;;;
2022/10/09 00:56:30;;;;;;;4.5;2.7;;;;;;;12.4;92.77734;944.405;;;;
2022/10/09 00:58:57;;;;;;;4.4;2.9;;;;;;;12.42;92.75977;944.3664;;;;
2022/10/09 01:01:22;;;;;;;5;2.8;;;;;;;12.41;93.48047;944.3867;;;;
2022/10/09 01:03:53;;;;;;;7;2.6;;;;;;;12.39;93.24707;944.3123;;;;
2022/10/09 01:06:18;;;;;;;4.5;2.5;;;;;;;12.44;93.09668;944.2732;;;;
2022/10/09 01:08:45;;;;;;;4.7;2.6;;;;;;;12.41;92.95313;944.195;;;;
2022/10/09 01:11:10;;;;;;;5.7;2.7;;;;;;;12.45;92.63965;944.1926;;;;
2022/10/09 01:13:36;;;;;;;3.9;2.5;;;;;;;12.43;92.39453;944.1285;;;;
2022/10/09 01:16:01;;;;;;;4;2.4;;;;;;;12.35;92.65234;944.0355;;;;
2022/10/09 01:18:26;;;;;;;4.7;2.8;;;;;;;12.36;92.80371;944.0938;;;;
2022/10/09 01:20:52;;;;;;;4.6;2.8;;;;;;;12.31;93.18359;944.0876;;;;
2022/10/09 01:23:16;;;;;;;5.6;2.7;;;;;;;12.32;93.20703;944.0535;;;;
2022/10/09 01:25:41;;;;;;;4.2;2.5;;;;;;;12.16;94.02148;944.0449;;;;
2022/10/09 01:28:06;;;;;;;4.5;2.5;;;;;;;12.14;93.99512;943.9631;;;;
2022/10/09 01:30:35;;;;;;;3.6;2.6;;;;;;;11.98;94.47559;943.9895;;;;
2022/10/09 01:33:00;;;;;;;4;2.2;;;;;;;11.98;94.20215;943.9233;;;;
2022/10/09 01:35:26;;;;;;;4.7;2.4;;;;;;;11.79;95.04102;943.8725;;;;
2022/10/09 01:37:51;;;;;;;3.6;2.2;;;;;;;11.75;95.27344;943.8972;;;;
2022/10/09 01:40:23;;;;;;;3.4;2.4;;;;;;;11.82;94.48535;943.9004;;;;
2022/10/09 01:42:53;;;;;;;3.6;2.1;;;;;;;11.84;94.24902;943.8455;;;;
2022/10/09 01:45:23;;;;;;;3.3;2.5;;;;;;;11.82;94.08691;943.8502;;;;
2022/10/09 01:47:48;;;;;;;5.5;2.6;;;;;;;11.79;93.99902;943.7617;;;;
2022/10/09 01:50:16;;;;;;;4.4;2.6;;;;;;;11.78;94.03125;943.8438;;;;
2022/10/09 01:52:43;;;;;;;4.8;2.9;;;;;;;11.84;93.83691;943.8176;;;;
2022/10/09 01:55:08;;;;;;;4.8;2.6;;;;;;;11.86;94.09473;943.7692;;;;
2022/10/09 01:57:37;;;;;;;2.9;2.3;;;;;;;11.87;94.71484;943.7678;;;;
2022/10/09 02:00:02;;;;;;;4.4;2.5;;;;;;;11.86;94.87305;943.6528;;;;
2022/10/09 02:02:31;;;;;;;4.4;2.7;;;;;;;11.88;94.93457;943.6953;;;;
2022/10/09 02:04:58;;;;;;;3.6;2.4;;;;;;;11.85;94.81445;943.6415;;;;
2022/10/09 02:07:23;;;;;;;3.8;2.5;;;;;;;11.88;94.38477;943.6395;;;;
2022/10/09 02:09:49;;;;;;;3.9;2.4;;;;;;;11.89;94.24902;943.555;;;;
2022/10/09 02:12:14;;;;;;;4;2.6;;;;;;;11.71;95.16016;943.5544;;;;
2022/10/09 02:14:40;;;;;;;4.9;2.2;;;;;;;11.54;96.47363;943.543;;;;
2022/10/09 02:17:05;;;;;;;3.5;2.2;;;;;;;11.46;96.94727;943.5435;;;;
2022/10/09 02:19:33;;;;;;;4;2.2;;;;;;;11.68;96.37988;943.5261;;;;
2022/10/09 02:21:58;;;;;;;3.6;2.2;;;;;;;11.8;95.69531;943.5344;;;;
2022/10/09 02:24:23;;;;;;;4.7;2.4;;;;;;;11.89;94.39844;943.5142;;;;
2022/10/09 02:26:49;;;;;;;2.9;2.3;;;;;;;11.88;93.64063;943.4295;;;;
2022/10/09 02:29:13;;;;;;;3.8;2.2;;;;;;;11.92;93.23828;943.5059;;;;
2022/10/09 02:31:39;;;;;;;2.1;1.9;;;;;;;11.84;92.94531;943.524;;;;
2022/10/09 02:34:04;;;;;;;2.1;1.9;;;;;;;11.7;93.86523;943.4522;;;;
2022/10/09 02:36:31;;;;;;;4;2;;;;;;;11.63;94.35254;943.4281;;;;
2022/10/09 02:38:56;;;;;;;2.7;2.1;;;;;;;11.64;94.02441;943.3844;;;;
2022/10/09 02:41:23;;;;;;;3.6;2.3;;;;;;;11.61;94.32422;943.3859;;;;
2022/10/09 02:43:48;;;;;;;4.2;2.1;;;;;;;11.68;93.80371;943.3187;;;;
2022/10/09 02:49:39;;;;;;;3.8;2.4;;;;;;;11.63;93.31152;943.3084;;;;
2022/10/09 02:56:59;;;;;;;3.3;2.3;;;;;;;11.5;94.81738;943.348;;;;
2022/10/09 02:59:25;;;;;;;4.5;2.5;;;;;;;11.53;94.54883;943.2972;;;;
2022/10/09 03:01:54;;;;;;;5.5;2.5;;;;;;;11.49;94.74512;943.2863;;;;
2022/10/09 03:04:24;;;;;;;4;2.7;;;;;;;11.45;95.43457;943.2188;;;;
2022/10/09 03:06:49;;;;;;;4.4;2.6;;;;;;;11.51;95.11719;943.1799;;;;
2022/10/09 03:09:19;;;;;;;5.8;2.6;;;;;;;11.58;94.94922;943.2198;;;;
2022/10/09 03:11:48;;;;;;;3.2;2.3;;;;;;;11.57;94.75293;943.19;;;;
2022/10/09 03:14:13;;;;;;;3.2;2.7;;;;;;;11.48;95.25977;943.177;;;;
2022/10/09 03:16:42;;;;;;;5.1;2.3;;;;;;;11.42;96.16113;943.2095;;;;
2022/10/09 03:19:07;;;;;;;3.7;2.5;;;;;;;11.45;95.91504;943.202;;;;
2022/10/09 03:21:34;;;;;;;3.9;2.3;;;;;;;11.45;95.83496;943.2442;;;;
2022/10/09 03:23:59;;;;;;;3.5;2.4;;;;;;;11.47;95.69238;943.2598;;;;
2022/10/09 03:26:25;;;;;;;4.5;2.4;;;;;;;11.49;95.3877;943.1691;;;;
2022/10/09 03:28:50;;;;;;;4;2.6;;;;;;;11.49;95.90234;943.1459;;;;
2022/10/09 03:31:16;;;;;;;3.1;2.4;;;;;;;11.52;95.83984;943.1958;;;;
2022/10/09 03:33:41;;;;;;;2.8;2.2;;;;;;;11.43;96.89551;943.1922;;;;
2022/10/09 03:36:13;;;;;;;2.2;2;;;;;;;11.5;96.4541;943.1899;;;;
2022/10/09 03:38:44;;;;;;;3.5;2.4;;;;;;;11.59;95.72949;943.1682;;;;
2022/10/09 03:41:09;;;;;;;3.3;2.6;;;;;;;11.68;94.81152;943.1727;;;;
2022/10/09 03:43:36;;;;;;;4.6;2.3;;;;;;;11.74;94.50391;943.1735;;;;
2022/10/09 03:46:04;;;;;;;2.9;2.5;;;;;;;11.79;94.53711;943.0667;;;;
2022/10/09 03:48:29;;;;;;;3.4;2.4;;;;;;;11.76;94.83789;943.1322;;;;
2022/10/09 03:51:00;;;;;;;5.2;2.4;;;;;;;11.75;94.91895;943.117;;;;
2022/10/09 03:53:29;;;;;;;5.5;2.8;;;;;;;11.78;94.78711;943.134;;;;
2022/10/09 03:55:54;;;;;;;3.5;2.4;;;;;;;11.81;94.62109;943.157;;;;
2022/10/09 03:58:24;;;;;;;4.2;2.6;;;;;;;11.79;94.70898;943.1505;;;;
2022/10/09 04:02:32;;;;;;;3.7;2.4;;;;;;;11.81;94.81543;943.1284;;;;
2022/10/09 04:05:02;;;;;;;3.5;2.6;;;;;;;11.77;95.0918;943.1244;;;;
2022/10/09 04:07:27;;;;;;;4.4;2.9;;;;;;;11.79;95.28125;943.1161;;;;
2022/10/09 04:09:56;;;;;;;5.4;4;;;;;;;11.83;95.09668;943.0708;;;;
2022/10/09 04:12:21;;;;;;;5.3;3.7;;;;;;;11.84;95.21094;943.0508;;;;
2022/10/09 04:14:48;;;;;;;5.4;3.1;;;;;;;11.81;95.41113;943.0471;;;;
2022/10/09 04:17:13;;;;;;;4.8;3.4;;;;;;;11.74;95.80762;943.0203;;;;
2022/10/09 04:19:41;;;;;;;3;2.7;;;;;;;11.6;96.47559;942.9888;;;;
2022/10/09 04:22:06;;;;;;;3.8;3;;;;;;;11.58;96.94141;943.0179;;;;
2022/10/09 04:24:33;;;;;;;4;2.7;;;;;;;11.72;96.60547;942.9817;;;;
2022/10/09 04:26:58;;;;;;;5;2.5;;;;;;;11.8;95.98145;942.9319;;;;
2022/10/09 04:29:29;;;;;;;4.2;2.7;;;;;;;11.72;96.08008;942.9347;;;;
2022/10/09 04:31:57;;;;;;;3.3;2.3;;;;;;;11.71;96.25977;942.925;;;;
2022/10/09 04:34:23;;;;;;;4.4;2.5;;;;;;;11.58;97.45605;942.915;;;;
2022/10/09 04:36:52;;;;;;;3.4;2.4;;;;;;;11.73;97.1123;942.8359;;;;
2022/10/09 04:39:21;;;;;;;3.7;2.3;;;;;;;11.83;96.7002;942.892;;;;
2022/10/09 04:41:54;;;;;;;4;2.4;;;;;;;11.94;95.81738;942.8851;;;;
2022/10/09 04:44:24;;;;;;;3.5;2.6;;;;;;;11.94;95.44141;942.7576;;;;
2022/10/09 04:46:49;;;;;;;4.6;2.6;;;;;;;11.98;94.81934;942.8577;;;;
2022/10/09 04:49:19;;;;;;;3.1;2.2;;;;;;;11.96;94.63184;942.8799;;;;
2022/10/09 04:51:49;;;;;;;4.1;2.2;;;;;;;11.94;94.4082;942.795;;;;
2022/10/09 04:54:14;;;;;;;3.3;2;;;;;;;11.96;94.26563;942.8;;;;
2022/10/09 04:56:43;;;;;;;3;2.5;;;;;;;11.96;94.21973;942.8049;;;;
2022/10/09 04:59:08;;;;;;;4.7;2.4;;;;;;;11.97;94.69336;942.8035;;;;
2022/10/09 05:01:40;;;;;;;4;2.9;;;;;;;11.99;94.41992;942.7405;;;;
2022/10/09 05:04:09;;;;;;;5.2;2.6;;;;;;;11.98;94.4541;942.7659;;;;
2022/10/09 05:06:34;;;;;;;4.4;2.7;;;;;;;11.96;94.62012;942.6677;;;;
2022/10/09 05:09:05;;;;;;;3.2;2.6;;;;;;;11.94;94.82227;942.7025;;;;
2022/10/09 05:11:34;;;;;;;5;2.5;;;;;;;11.92;94.64648;942.6951;;;;
2022/10/09 05:14:02;;;;;;;6.3;2.9;;;;;;;11.9;94.50488;942.6638;;;;
2022/10/09 05:16:27;;;;;;;3;2.5;;;;;;;11.93;94.17871;942.6777;;;;
2022/10/09 05:18:57;;;;;;;5.4;2.8;;;;;;;11.94;94.29395;942.6131;;;;
2022/10/09 05:21:22;;;;;;;5.2;3;;;;;;;12;94.33203;942.6345;;;;
2022/10/09 05:23:48;;;;;;;5.1;3.1;;;;;;;11.97;94.7002;942.6397;;;;
2022/10/09 05:26:13;;;;;;;4.4;2.9;;;;;;;12;94.71973;942.5722;;;;
2022/10/09 05:28:39;;;;;;;4.6;2.8;;;;;;;11.99;94.4541;942.6176;;;;
2022/10/09 05:31:06;;;;;;;6.6;3.4;;;;;;;11.9;95.07617;942.6086;;;;
2022/10/09 05:33:35;;;;;;;5.1;3;;;;;;;11.94;94.67188;942.625;;;;
2022/10/09 05:36:00;;;;;;;4.5;3.3;;;;;;;11.84;95.14258;942.6111;;;;
2022/10/09 05:38:26;;;;;;;7.5;4.2;;;;;;;11.71;96.07617;942.6019;;;;
2022/10/09 05:40:52;;;;;;;6.7;4.2;;;;;;;11.75;96.15527;942.5648;;;;
2022/10/09 05:43:22;;;;;;;4.8;3.2;;;;;;;11.81;96.13281;942.5731;;;;
2022/10/09 05:45:47;;;;;;;4.3;3.2;;;;;;;11.79;96.20898;942.5114;;;;
2022/10/09 05:48:15;;;;;;;4.3;2.9;;;;;;;11.79;96.45117;942.4891;;;;
2022/10/09 05:50:43;;;;;;;3.8;3.2;;;;;;;11.74;96.75781;942.5432;;;;
2022/10/09 05:53:08;;;;;;;4.5;3;;;;;;;11.78;96.65332;942.5508;;;;
2022/10/09 05:55:38;;;;;;;4.6;3.3;;;;;;;11.84;96.72266;942.5178;;;;
2022/10/09 05:58:03;;;;;;;5.7;3.3;;;;;;;11.84;96.46094;942.5139;;;;
2022/10/09 06:00:30;;;;;;;4.3;3;;;;;;;11.87;96.03223;942.5285;;;;
2022/10/09 06:02:55;;;;;;;4;2.9;;;;;;;11.81;96.14648;942.504;;;;
2022/10/09 06:05:23;;;;;;;4;3.3;;;;;;;11.74;96.18555;942.4874;;;;
2022/10/09 06:07:48;;;;;;;4.2;3.4;;;;;;;11.75;96.40723;942.4683;;;;
2022/10/09 06:10:36;;;;;;;3.7;3.3;;;;;;;11.78;96.44727;942.5037;;;;
2022/10/09 06:13:08;;;;;;;8.3;5.3;;;;;;;11.91;95.83398;942.5353;;;;
2022/10/09 06:15:45;;;;;;;8.3;5.4;;;;;;;12;95.14355;942.5746;;;;
2022/10/09 06:18:10;;;;;;;8.7;4.8;;;;;;;12.02;94.8291;942.5776;;;;
2022/10/09 06:20:35;;;;;;;10.3;5.2;;;;;;;12.06;94.45898;942.5325;;;;
2022/10/09 06:23:04;;;;;;;7.3;4.2;;;;;;;12.06;94.08008;942.5133;;;;
2022/10/09 06:25:29;;;;;;;8.2;4.6;;;;;;;12.11;94.19531;942.5553;;;;
2022/10/09 06:28:47;;;;;;;6.3;4.2;;;;;;;12.19;93.69727;942.5578;;;;
2022/10/09 06:31:17;;;;;;;5;3.2;;;;;;;12.26;92.72461;942.4941;;;;
2022/10/09 06:33:42;;;;;;;3.4;2.7;;;;;;;12.18;93.58105;942.5737;;;;
2022/10/09 06:36:08;;;;;;;4.6;2.9;;;;;;;12.27;93.44922;942.5908;;;;
2022/10/09 06:38:33;;;;;;;4.2;2.9;;;;;;;12.25;93.08008;942.5643;;;;
2022/10/09 06:40:58;;;;;;;4.2;3.1;;;;;;;12.24;92.8125;942.6599;;;;
2022/10/09 06:43:23;;;;;;;6.4;3.4;;;;;;;12.37;92.39258;942.7386;;;;
2022/10/09 06:46:10;;;;;;;5.6;3.2;;;;;;;12.36;92.24414;942.7194;;;;
2022/10/09 06:48:38;;;;;;;5.4;3.1;;;;;;;12.45;91.7334;942.7772;;;;
2022/10/09 06:51:03;;;;;;;4.5;2.6;;;;;;;12.43;91.66992;942.817;;;;
2022/10/09 06:53:29;;;;;;;4.8;2.8;;;;;;;12.51;91.54004;942.769;;;;
2022/10/09 06:55:54;;;;;;;5.7;3.3;;;;;;;12.58;91.1084;942.7776;;;;
2022/10/09 06:58:19;;;;;;;4.8;2.9;;;;;;;12.65;91.3623;942.809;;;;
2022/10/09 07:00:48;;;;;;;3.7;3;;;;;;;12.73;91.13867;942.8488;;;;
2022/10/09 07:03:13;;;;;;;3.6;2.8;;;;;;;12.76;91.21289;942.8234;;;;
2022/10/09 07:05:43;;;;;;;3.8;3;;;;;;;12.73;91.83887;942.8351;;;;
2022/10/09 07:08:13;;;;;;;4.8;3.5;;;;;;;12.84;91.34668;942.8412;;;;
2022/10/09 07:10:38;;;;;;;4.8;3.4;;;;;;;12.92;90.22559;942.8681;;;;
2022/10/09 07:13:06;;;;;;;5.3;3.2;;;;;;;12.89;90.5293;942.868;;;;
2022/10/09 07:15:34;;;;;;;4.8;3.9;;;;;;;12.9;91.10547;942.864;;;;
2022/10/09 07:18:03;;;;;;;12;6.9;;;;;;;12.87;91.55859;942.835;;;;
2022/10/09 07:20:28;;;;;;;8.7;5;;;;;;;12.85;91.7959;942.8924;;;;
2022/10/09 07:22:55;;;;;;;5.5;4;;;;;;;12.8;92.29004;942.8661;;;;
2022/10/09 07:25:20;;;;;;;5.5;2.9;;;;;;;12.71;91.61816;942.827;;;;
2022/10/09 07:27:48;;;;;;;6;3.5;;;;;;;12.64;92.24609;942.8289;;;;
2022/10/09 07:30:13;;;;;;;5.6;4.4;;;;;;;12.71;92.71582;942.8438;;;;
2022/10/09 07:32:38;;;;;;;4.9;3.1;;;;;;;12.61;92.47949;942.8506;;;;
2022/10/09 07:35:03;;;;;;;5.6;3;;;;;;;12.56;90.3457;942.795;;;;
2022/10/09 07:37:32;;;;;;;4.2;2.7;;;;;;;12.59;90.13477;942.7546;;;;
2022/10/09 07:39:57;;;;;;;6.7;5.1;;;;;;;12.77;90.17285;942.7349;;;;
2022/10/09 07:42:26;;;;;;;8.8;4.9;;;;;;;12.8;89.99414;942.6711;;;;
2022/10/09 07:44:51;;;;;;;4.9;2.6;;;;;;;12.74;90.87793;942.6387;;;;
2022/10/09 07:47:18;;;;;;;3.8;2.6;;;;;;;12.85;87.70996;942.7094;;;;
2022/10/09 07:49:43;;;;;;;3.5;2.7;;;;;;;13.01;88.61328;942.7137;;;;
2022/10/09 07:52:09;;;;;;;3;2.7;;;;;;;13.21;86.89844;942.6409;;;;
2022/10/09 07:54:34;;;;;;;5.8;3.2;;;;;;;13.33;85.8877;942.6;;;;
2022/10/09 07:57:01;;;;;;;6.4;3;;;;;;;13.46;85.25684;942.5825;;;;
2022/10/09 07:59:26;;;;;;;5;3.3;;;;;;;13.37;84.69922;942.6178;;;;
2022/10/09 08:01:53;;;;;;;7.2;3.7;;;;;;;13.49;85.08008;942.5851;;;;
2022/10/09 08:04:18;;;;;;;5.4;3.4;;;;;;;13.43;85.74414;942.6287;;;;
2022/10/09 08:06:46;;;;;;;4.9;3.8;;;;;;;13.34;85.24512;942.632;;;;
2022/10/09 08:09:11;;;;;;;6.2;4.1;;;;;;;13.47;85.67285;942.6283;;;;
2022/10/09 08:11:41;;;;;;;15.4;10.4;;;;;;;13.45;85.8877;942.6058;;;;
2022/10/09 08:14:12;;;;;;;7.7;4.8;;;;;;;13.62;86.46191;942.5669;;;;
2022/10/09 08:16:37;;;;;;;5.9;3.7;;;;;;;13.69;85.64844;942.5311;;;;
2022/10/09 08:19:06;;;;;;;5.2;3.1;;;;;;;13.47;85.26074;942.5723;;;;
2022/10/09 08:21:32;;;;;;;4.6;2.8;;;;;;;13.49;85.34277;942.5619;;;;
2022/10/09 08:23:57;;;;;;;4.8;3.2;;;;;;;13.57;84.86426;942.5999;;;;
2022/10/09 08:26:23;;;;;;;4.8;2.8;;;;;;;13.58;85.44238;942.5528;;;;
2022/10/09 08:28:50;;;;;;;5.3;3.1;;;;;;;13.55;85.87207;942.5822;;;;
2022/10/09 08:31:16;;;;;;;5;2.6;;;;;;;13.74;85.95605;942.5354;;;;
2022/10/09 08:33:41;;;;;;;6.2;2.8;;;;;;;13.75;86.7168;942.5082;;;;
2022/10/09 08:36:08;;;;;;;4.8;3.6;;;;;;;13.84;85.66699;942.516;;;;
2022/10/09 08:38:34;;;;;;;4.4;3;;;;;;;13.96;85.26367;942.5413;;;;
2022/10/09 08:41:03;;;;;;;4.5;2.4;;;;;;;13.91;84.81445;942.5587;;;;
2022/10/09 08:43:28;;;;;;;5.5;2.4;;;;;;;13.89;84.26074;942.4738;;;;
2022/10/09 08:45:54;;;;;;;3.3;2.4;;;;;;;13.72;85.57324;942.4961;;;;
2022/10/09 08:48:21;;;;;;;4.8;2.6;;;;;;;13.66;86.74512;942.455;;;;
2022/10/09 08:50:46;;;;;;;3.6;2.5;;;;;;;13.82;86.73145;942.5464;;;;
2022/10/09 08:53:13;;;;;;;4.9;2.8;;;;;;;13.87;85.29102;942.4953;;;;
2022/10/09 08:55:39;;;;;;;6.2;2.6;;;;;;;13.92;82.75781;942.5355;;;;
2022/10/09 08:58:05;;;;;;;3.2;2.6;;;;;;;13.84;83.67676;942.5513;;;;
2022/10/09 09:00:29;;;;;;;5.6;2.5;;;;;;;14;84.18945;942.5461;;;;
2022/10/09 09:02:54;;;;;;;4.3;2.6;;;;;;;14.14;83.6875;942.5373;;;;
2022/10/09 09:05:22;;;;;;;4.1;2.5;;;;;;;13.79;81.53809;942.558;;;;
2022/10/09 09:07:47;;;;;;;3.4;2.5;;;;;;;13.75;83.42676;942.5386;;;;
2022/10/09 09:10:12;;;;;;;4.4;2.7;;;;;;;13.94;82.56543;942.4331;;;;
2022/10/09 09:12:37;;;;;;;5.7;2.6;;;;;;;13.96;80.91211;942.51;;;;
2022/10/09 09:15:06;;;;;;;5;3.1;;;;;;;14.03;80.94824;942.4681;;;;
2022/10/09 09:17:33;;;;;;;5.3;3.8;;;;;;;14.14;81.75195;942.4523;;;;
2022/10/09 09:19:58;;;;;;;9.7;5.9;;;;;;;14.12;82.7168;942.4299;;;;
2022/10/09 09:22:26;;;;;;;6.4;4.4;;;;;;;14.17;82.74902;942.4517;;;;
2022/10/09 09:24:51;;;;;;;5.8;3.9;;;;;;;14.13;82.1875;942.4283;;;;
2022/10/09 09:27:18;;;;;;;5.9;3.1;;;;;;;14.18;82.64648;942.3908;;;;
2022/10/09 09:29:43;;;;;;;3.3;2.3;;;;;;;14.01;81.45215;942.314;;;;
2022/10/09 09:32:08;;;;;;;5;2.8;;;;;;;13.98;82.25195;942.3099;;;;
2022/10/09 09:34:35;;;;;;;6;4.1;;;;;;;13.94;81.25586;942.3042;;;;
2022/10/09 09:36:59;;;;;;;6.3;4.2;;;;;;;14.08;82.4209;942.2792;;;;
2022/10/09 09:39:29;;;;;;;5.7;4;;;;;;;14.15;81.19043;942.2537;;;;
2022/10/09 09:41:54;;;;;;;3.6;3;;;;;;;14.04;80.42285;942.2224;;;;
2022/10/09 09:44:25;;;;;;;4.9;2.8;;;;;;;14.04;80.62793;942.2656;;;;
2022/10/09 09:46:50;;;;;;;4;3.2;;;;;;;14.22;82.14844;942.2294;;;;
2022/10/09 09:49:19;;;;;;;15.8;7.1;;;;;;;14.37;81.12793;942.1895;;;;
2022/10/09 09:51:44;;;;;;;5.7;3.5;;;;;;;14.39;80.1748;942.2159;;;;
2022/10/09 09:54:11;;;;;;;4.5;3.4;;;;;;;14.22;80.68652;942.1525;;;;
2022/10/09 09:56:38;;;;;;;6.4;3.1;;;;;;;14.13;81.00195;942.1231;;;;
2022/10/09 09:59:04;;;;;;;5.2;3;;;;;;;14.16;81.77832;942.1376;;;;
2022/10/09 10:01:29;;;;;;;5.2;2.7;;;;;;;14.22;81.68652;942.0723;;;;
2022/10/09 10:03:57;;;;;;;3.6;2.5;;;;;;;14.46;82.11035;942.066;;;;
2022/10/09 10:06:22;;;;;;;4.7;3;;;;;;;14.39;81.57031;942.0927;;;;
2022/10/09 10:08:47;;;;;;;4.5;3;;;;;;;14.4;81.53711;942.0758;;;;
2022/10/09 10:11:13;;;;;;;5.6;3;;;;;;;14.54;80.0166;941.9587;;;;
2022/10/09 10:13:40;;;;;;;5.6;2.8;;;;;;;14.53;80.33984;941.9883;;;;
2022/10/09 10:16:06;;;;;;;4.2;2.5;;;;;;;14.64;79.88574;941.9791;;;;
2022/10/09 10:18:31;;;;;;;5.7;3.5;;;;;;;14.53;80.31641;941.9995;;;;
2022/10/09 10:21:00;;;;;;;4.7;3.1;;;;;;;14.69;81.10547;941.9221;;;;
2022/10/09 10:23:30;;;;;;;6.9;3.4;;;;;;;14.81;80.79492;941.8378;;;;
2022/10/09 10:25:55;;;;;;;5.7;3.2;;;;;;;15.02;80.66992;941.8493;;;;
2022/10/09 10:28:21;;;;;;;7.3;3.4;;;;;;;15.1;80.74219;941.8467;;;;
2022/10/09 10:30:48;;;;;;;6.4;4.7;;;;;;;15.2;80.3584;941.7622;;;;
2022/10/09 10:33:13;;;;;;;7.4;4.3;;;;;;;15.28;82.42676;941.7639;;;;
2022/10/09 10:35:38;;;;;;;6.3;4.4;;;;;;;15.26;82.06738;941.711;;;;
2022/10/09 10:38:05;;;;;;;5.6;3.7;;;;;;;15.26;81.22461;941.7335;;;;
2022/10/09 10:40:28;;;;;;;6.8;4.3;;;;;;;15.43;83.16016;941.75;;;;
2022/10/09 10:42:53;;;;;;;5.3;3.9;;;;;;;15.69;81.54395;941.6886;;;;
2022/10/09 10:45:23;;;;;;;7.8;4.1;;;;;;;15.54;80.8125;941.7062;;;;
2022/10/09 10:47:48;;;;;;;6.2;4.5;;;;;;;15.56;81.75195;941.7119;;;;
2022/10/09 10:50:18;;;;;;;5;4.2;;;;;;;15.88;80.86426;941.699;;;;
2022/10/09 10:52:43;;;;;;;5.2;3.8;;;;;;;16.12;79.30176;941.6722;;;;
2022/10/09 10:55:12;;;;;;;5.3;4.3;;;;;;;16.33;76.33105;941.6365;;;;
2022/10/09 10:57:41;;;;;;;4.6;3.9;;;;;;;16.2;77.03809;941.6548;;;;
2022/10/09 11:00:06;;;;;;;4.9;4.1;;;;;;;16.57;75.77148;941.6534;;;;
2022/10/09 11:02:38;;;;;;;4.8;3.8;;;;;;;16.85;74.75488;941.5313;;;;
2022/10/09 11:05:03;;;;;;;4.6;3.6;;;;;;;16.91;73.86035;941.5734;;;;
2022/10/09 11:07:36;;;;;;;3.9;3.5;;;;;;;16.89;74.14648;941.5817;;;;
2022/10/09 11:10:01;;;;;;;4.2;3.1;;;;;;;16.82;74.21582;941.5997;;;;
2022/10/09 11:12:26;;;;;;;5.2;3.7;;;;;;;16.28;75.51172;941.5798;;;;
2022/10/09 11:14:51;;;;;;;5.3;3.9;;;;;;;16.31;74.04785;941.5781;;;;
2022/10/09 11:17:17;;;;;;;5.5;3.8;;;;;;;16.05;74.97559;941.5097;;;;
2022/10/09 11:19:42;;;;;;;5.4;3.8;;;;;;;16.18;75.71582;941.5272;;;;
2022/10/09 11:22:09;;;;;;;7.3;3.4;;;;;;;15.9;77.62012;941.4653;;;;
2022/10/09 11:24:35;;;;;;;4.4;3.7;;;;;;;15.39;79.98926;941.4827;;;;
2022/10/09 11:27:03;;;;;;;5.5;4;;;;;;;15.51;80.28809;941.4512;;;;
2022/10/09 11:29:32;;;;;;;4.7;3.9;;;;;;;15.26;81.81152;941.3764;;;;
2022/10/09 11:31:57;;;;;;;5.8;4.3;;;;;;;15.1;83.47754;941.4313;;;;
2022/10/09 11:34:25;;;;;;;5.9;4.2;;;;;;;15.26;83.16406;941.382;;;;
2022/10/09 11:36:50;;;;;;;6.8;3.9;;;;;;;15.51;80.49609;941.4174;;;;
2022/10/09 11:39:17;;;;;;;5.6;3.6;;;;;;;15.55;79.86914;941.4156;;;;
2022/10/09 11:41:40;;;;;;;6.5;3.7;;;;;;;15.49;80.11133;941.3959;;;;
2022/10/09 11:44:12;;;;;;;5.6;3.9;;;;;;;15.47;81.63281;941.3911;;;;
2022/10/09 11:46:43;;;;;;;5.7;3.6;;;;;;;15.52;80.49805;941.3628;;;;
2022/10/09 11:49:10;;;;;;;4.8;3.4;;;;;;;15.62;79.89258;941.3405;;;;
2022/10/09 11:51:43;;;;;;;6.6;3.4;;;;;;;15.56;80.71387;941.3369;;;;
2022/10/09 11:54:08;;;;;;;6;3.7;;;;;;;15.49;82.45605;941.3196;;;;
2022/10/09 11:56:33;;;;;;;6.6;3.7;;;;;;;15.52;82.49707;941.3588;;;;
2022/10/09 11:59:02;;;;;;;5.8;3.9;;;;;;;15.68;81.6709;941.3273;;;;
2022/10/09 12:01:27;;;;;;;6.5;4;;;;;;;15.68;82.35352;941.3482;;;;
2022/10/09 12:03:58;;;;;;;5.4;3.7;;;;;;;15.58;82.79688;941.3232;;;;
2022/10/09 12:06:24;;;;;;;5.5;3.3;;;;;;;15.72;81.95508;941.3223;;;;
2022/10/09 12:08:53;;;;;;;3.8;3.3;;;;;;;15.72;81.70117;941.2781;;;;
2022/10/09 12:11:18;;;;;;;5.6;4.1;;;;;;;15.81;80.67773;941.2503;;;;
2022/10/09 12:13:43;;;;;;;5.1;3.7;;;;;;;15.29;82.02637;941.2255;;;;
2022/10/09 12:16:09;;;;;;;5.9;4.4;;;;;;;15.1;84.04297;941.2138;;;;
2022/10/09 12:18:34;;;;;;;6.3;4.4;;;;;;;15;83.9541;941.2243;;;;
2022/10/09 12:20:59;;;;;;;9.1;4.4;;;;;;;14.83;84.30176;941.1975;;;;
2022/10/09 12:23:25;;;;;;;5.6;4.2;;;;;;;14.72;85.6543;941.1021;;;;
2022/10/09 12:25:50;;;;;;;6.1;4;;;;;;;14.95;84.10742;941.1594;;;;
2022/10/09 12:28:20;;;;;;;5.4;3.5;;;;;;;14.82;84.83008;941.1606;;;;
2022/10/09 12:30:45;;;;;;;3.9;3.5;;;;;;;;;;;;;
2022/10/09 12:33:10;;;;;;;5.1;3.8;;;;;;;;;;;;;
2022/10/09 12:35:35;;;;;;;5.6;3.8;;;;;;;;;;;;;
2022/10/09 12:38:01;;;;;;;6;4.1;;;;;;;;;;;;;
2022/10/09 12:40:26;;;;;;;6.8;4.2;;;;;;;;;;;;;
2022/10/09 12:42:52;;;;;;;7.1;4.6;;;;;;;;;;;;;
2022/10/09 12:45:17;;;;;;;7.3;4.4;;;;;;;;;;;;;
2022/10/09 12:47:44;;;;;;;5.6;4.1;;;;;;;;;;;;;
2022/10/09 12:50:09;;;;;;;6;4.7;;;;;;;;;;;;;
2022/10/09 12:52:34;;;;;;;6.7;4.4;;;;;;;;;;;;;
2022/10/09 12:55:00;;;;;;;5.5;4.1;;;;;;;;;;;;;
2022/10/09 12:57:26;;;;;;;7.6;4.4;;;;;;;;;;;;;
2022/10/09 12:59:51;;;;;;;5.1;3.6;;;;;;;;;;;;;
2022/10/09 13:02:16;;;;;;;6.8;4.5;;;;;;;;;;;;;
2022/10/09 13:04:41;;;;;;;4.3;3.8;;;;;;;;;;;;;
2022/10/09 13:07:06;;;;;;;6.1;4.4;;;;;;;;;;;;;
2022/10/09 13:09:33;;;;;;;5.7;4.3;;;;;;;;;;;;;
2022/10/09 13:11:58;;;;;;;5.4;4.3;;;;;;;;;;;;;
2022/10/09 13:14:25;;;;;;;4.9;3.5;;;;;;;;;;;;;
2022/10/09 13:16:50;;;;;;;6.2;3.7;;;;;;;;;;;;;
2022/10/09 13:19:15;;;;;;;5.2;3.8;;;;;;;;;;;;;
2022/10/09 13:21:40;;;;;;;8.4;3.7;;;;;;;;;;;;;
2022/10/09 13:24:05;;;;;;;4;3.6;;;;;;;;;;;;;
2022/10/09 13:26:30;;;;;;;4.8;4.1;;;;;;;;;;;;;
2022/10/09 13:28:56;;;;;;;4.6;4;;;;;;;;;;;;;
2022/10/09 13:31:21;;;;;;;4.4;4;;;;;;;;;;;;;
2022/10/09 13:33:48;;;;;;;4.4;3.7;;;;;;;;;;;;;
2022/10/09 13:36:13;;;;;;;5.7;3.9;;;;;;;;;;;;;
2022/10/09 13:38:38;;;;;;;7.3;4.3;;;;;;;;;;;;;
2022/10/09 13:41:03;;;;;;;7.4;4.2;;;;;;;;;;;;;
2022/10/09 13:43:29;;;;;;;6.4;4;;;;;;;;;;;;;
2022/10/09 13:45:55;;;;;;;4.8;4.1;;;;;;;;;;;;;
2022/10/09 13:48:20;;;;;;;4.9;3.9;;;;;;;;;;;;;
2022/10/09 13:50:46;;;;;;;4.8;3.9;;;;;;;;;;;;;
2022/10/09 13:53:11;;;;;;;5.4;4.3;;;;;;;;;;;;;
2022/10/09 13:55:37;;;;;;;4.9;4;;;;;;;;;;;;;
2022/10/09 13:58:02;;;;;;;7.1;4.3;;;;;;;;;;;;;
2022/10/09 14:00:29;;;;;;;4.4;4;;;;;;;;;;;;;
2022/10/09 14:02:55;;;;;;;5.9;4.5;;;;;;;;;;;;;
2022/10/09 14:05:20;;;;;;;6.3;3.8;;;;;;;;;;;;;
2022/10/09 14:07:47;;;;;;;5.1;4.2;;;;;;;;;;;;;
2022/10/09 14:10:12;;;;;;;5.9;4.2;;;;;;;;;;;;;
2022/10/09 14:12:39;;;;;;;5.9;4.4;;;;;;;;;;;;;
2022/10/09 14:15:04;;;;;;;6.4;4.4;;;;;;;;;;;;;
2022/10/09 14:17:33;;;;;;;5.4;4.2;;;;;;;;;;;;;
2022/10/09 14:19:58;;;;;;;5.1;4;;;;;;;;;;;;;
2022/10/09 14:22:24;;;;;;;6.4;4.2;;;;;;;;;;;;;
2022/10/09 14:24:49;;;;;;;5.5;4.8;;;;;;;;;;;;;
2022/10/09 14:27:14;;;;;;;7.1;4.2;;;;;;;;;;;;;
2022/10/09 14:29:40;;;;;;;6;4.7;;;;;;;;;;;;;
2022/10/09 14:32:05;;;;;;;5.5;4.4;;;;;;;;;;;;;
2022/10/09 14:34:30;;;;;;;4.7;4.2;;;;;;;;;;;;;
2022/10/09 14:36:57;;;;;;;6.4;4.4;;;;;;;;;;;;;
2022/10/09 14:39:22;;;;;;;7;4.6;;;;;;;;;;;;;
2022/10/09 14:41:49;;;;;;;6.7;4.5;;;;;;;;;;;;;
2022/10/09 14:44:33;;;;;;;6.2;4.2;;;;;;;;;;;;;
2022/10/09 14:47:00;;;;;;;5.8;4.2;;;;;;;;;;;;;
2022/10/09 14:49:25;;;;;;;4.7;4.2;;;;;;;;;;;;;
2022/10/09 14:51:50;;;;;;;6.2;4.4;;;;;;;;;;;;;
2022/10/09 14:54:15;;;;;;;6.2;4.8;;;;;;;;;;;;;
2022/10/09 14:56:42;;;;;;;6;4.5;;;;;;;;;;;;;
2022/10/09 14:59:07;;;;;;;6.4;4.2;;;;;;;;;;;;;
2022/10/09 15:01:33;;;;;;;5.4;4.2;;;;;;;;;;;;;
2022/10/09 15:03:58;;;;;;;5.9;4.4;;;;;;;;;;;;;
2022/10/09 15:06:26;;;;;;;6.7;5;;;;;;;;;;;;;
2022/10/09 15:08:50;;;;;;;7.1;5.2;;;;;;;;;;;;;
2022/10/09 15:11:17;;;;;;;6.5;4.9;;;;;;;;;;;;;
2022/10/09 15:13:42;;;;;;;5.4;4.6;;;;;;;;;;;;;
2022/10/09 15:16:08;;;;;;;5.4;4.6;;;;;;;;;;;;;
2022/10/09 15:18:34;;;;;;;8.2;4.7;;;;;;;;;;;;;
2022/10/09 15:21:00;;;;;;;7.3;4.9;;;;;;;;;;;;;
2022/10/09 15:23:24;;;;;;;6.3;5.2;;;;;;;;;;;;;
2022/10/09 15:25:49;;;;;;;6.8;4.9;;;;;;;;;;;;;
2022/10/09 15:28:45;;;;;;;9.4;5.1;;;;;;;;;;;;;